Time;durP1;ratioP1;P1;durP2;ratioP2;P2;SDS_P1;SDS_P2;PMS_P1;PMS_P2;Temp;Humidity;BMP_temperature;BMP_pressure;BME280_temperature;BME280_humidity;BME280_pressure;Samples;Min_cycle;Max_cycle;Signal;HPM_P1;HPM_P2
2022/08/09 00:01:01;;;;;;;5.73;2.27;;;20.40;1.00;;;;;;5029878;28;20412;-77
2022/08/09 00:03:48;;;;;;;2.50;1.97;;;20.40;1.00;;;;;;5025310;28;20942;-77
2022/08/09 00:06:25;;;;;;;4.27;2.10;;;20.30;1.00;;;;;;5015547;28;20411;-77
2022/08/09 00:08:51;;;;;;;4.70;2.37;;;20.30;1.00;;;;;;5021409;28;20511;-77
2022/08/09 00:11:31;;;;;;;3.63;2.40;;;20.30;1.00;;;;;;5016511;28;20433;-77
2022/08/09 00:14:01;;;;;;;2.23;2.03;;;20.20;1.00;;;;;;5029602;28;20252;-77
2022/08/09 00:16:52;;;;;;;4.00;2.30;;;20.20;1.00;;;;;;5034575;28;20538;-78
2022/08/09 00:19:18;;;;;;;3.90;2.70;;;20.10;1.00;;;;;;5033796;28;20756;-77
2022/08/09 00:22:01;;;;;;;2.50;2.30;;;20.10;1.00;;;;;;5034318;28;20417;-77
2022/08/09 00:24:28;;;;;;;4.27;2.37;;;20.10;1.00;;;;;;5019236;28;20184;-77
2022/08/09 00:26:55;;;;;;;4.77;2.37;;;20.00;1.00;;;;;;5035796;28;20427;-77
2022/08/09 00:29:26;;;;;;;2.30;2.10;;;20.00;1.00;;;;;;5024259;28;21382;-75
2022/08/09 00:31:55;;;;;;;2.73;2.40;;;20.00;1.00;;;;;;5018098;28;20488;-75
2022/08/09 00:34:31;;;;;;;3.10;2.40;;;19.90;1.00;;;;;;5027925;28;20431;-74
2022/08/09 00:37:01;;;;;;;3.67;2.57;;;19.90;1.00;;;;;;5016158;28;20436;-75
2022/08/09 00:39:26;;;;;;;5.33;2.47;;;19.80;1.00;;;;;;5029628;28;20810;-74
2022/08/09 00:41:55;;;;;;;2.50;2.00;;;19.80;1.00;;;;;;5028488;28;20440;-74
2022/08/09 00:44:23;;;;;;;2.73;2.20;;;19.80;1.00;;;;;;5033570;28;20190;-76
2022/08/09 00:46:49;;;;;;;11.67;2.63;;;19.80;1.00;;;;;;5035436;28;20866;-77
2022/08/09 00:49:19;;;;;;;3.00;2.30;;;19.70;1.00;;;;;;5035595;28;20454;-77
2022/08/09 00:55:19;;;;;;;3.40;2.20;;;19.70;1.00;;;;;;5032515;28;20472;-77
2022/08/09 00:57:55;;;;;;;3.93;2.07;;;19.60;1.00;;;;;;5016904;28;20463;-77
2022/08/09 01:00:26;;;;;;;6.43;2.70;;;19.60;1.00;;;;;;5035743;28;20395;-77
2022/08/09 01:03:15;;;;;;;4.70;2.70;;;19.60;1.00;;;;;;5031666;28;20403;-77
2022/08/09 01:05:55;;;;;;;5.47;2.13;;;19.60;1.00;;;;;;5019099;28;20451;-77
2022/08/09 01:08:51;;;;;;;9.70;2.30;;;19.60;1.00;;;;;;5025825;28;20439;-77
2022/08/09 01:12:03;;;;;;;2.33;2.17;;;19.50;1.00;;;;;;5022129;28;20442;-77
2022/08/09 01:14:42;;;;;;;3.00;2.60;;;19.50;1.00;;;;;;5031764;28;20529;-77
2022/08/09 01:17:28;;;;;;;2.93;2.20;;;19.50;1.00;;;;;;5021867;28;20473;-75
2022/08/09 01:20:02;;;;;;;3.63;2.27;;;19.50;1.00;;;;;;5019719;28;20438;-74
2022/08/09 01:23:02;;;;;;;4.07;2.33;;;19.40;1.00;;;;;;5031911;28;20524;-74
2022/08/09 01:25:55;;;;;;;4.07;2.57;;;19.50;1.00;;;;;;5024040;28;20426;-75
2022/08/09 01:28:22;;;;;;;7.67;2.80;;;19.40;1.00;;;;;;5020331;28;20419;-74
2022/08/09 01:30:50;;;;;;;2.43;2.13;;;19.50;1.00;;;;;;5018517;28;20485;-74
2022/08/09 01:33:19;;;;;;;4.30;2.60;;;19.40;1.00;;;;;;5019948;28;20415;-75
2022/08/09 01:35:56;;;;;;;4.07;2.47;;;19.50;1.00;;;;;;5032127;28;20471;-74
2022/08/09 01:38:28;;;;;;;5.90;2.63;;;19.50;1.00;;;;;;5032491;28;20429;-75
2022/08/09 01:41:19;;;;;;;4.37;2.90;;;19.50;1.00;;;;;;5030513;28;20406;-75
2022/08/09 01:43:51;;;;;;;2.90;2.70;;;19.40;1.00;;;;;;5031490;28;20492;-75
2022/08/09 01:46:40;;;;;;;3.97;2.10;;;19.40;1.00;;;;;;5022030;28;20442;-75
2022/08/09 01:49:15;;;;;;;4.30;2.60;;;19.40;1.00;;;;;;5014017;28;20960;-74
2022/08/09 01:52:09;;;;;;;2.77;2.53;;;19.30;1.00;;;;;;5032377;28;20998;-75
2022/08/09 01:54:54;;;;;;;8.50;3.03;;;19.30;1.00;;;;;;5026262;28;20431;-75
2022/08/09 01:57:37;;;;;;;3.33;2.70;;;19.30;1.00;;;;;;5033701;28;20453;-75
2022/08/09 02:00:08;;;;;;;10.00;2.33;;;19.30;1.00;;;;;;5033593;28;20435;-77
2022/08/09 02:02:50;;;;;;;6.10;2.70;;;19.20;1.00;;;;;;5022560;28;20419;-77
2022/08/09 02:05:43;;;;;;;4.47;2.87;;;19.20;1.00;;;;;;5027302;28;20429;-78
2022/08/09 02:08:21;;;;;;;7.23;3.10;;;19.20;1.00;;;;;;5017544;28;20463;-78
2022/08/09 02:10:56;;;;;;;2.60;2.40;;;19.20;1.00;;;;;;5022951;28;20423;-77
2022/08/09 02:13:26;;;;;;;5.53;3.00;;;19.20;1.00;;;;;;5031931;28;20430;-78
2022/08/09 02:15:54;;;;;;;6.30;3.43;;;19.20;1.00;;;;;;5017270;28;20459;-75
2022/08/09 02:18:27;;;;;;;4.20;3.00;;;19.10;1.00;;;;;;5012981;28;20796;-75
2022/08/09 02:21:07;;;;;;;5.90;2.80;;;19.10;1.00;;;;;;5018141;28;20841;-75
2022/08/09 02:23:48;;;;;;;7.80;3.27;;;19.10;1.00;;;;;;5023441;28;20420;-75
2022/08/09 02:26:15;;;;;;;5.23;2.90;;;19.00;1.00;;;;;;5021770;28;20432;-75
2022/08/09 02:28:48;;;;;;;2.60;2.40;;;19.00;1.00;;;;;;5027296;28;20418;-75
2022/08/09 02:31:29;;;;;;;3.13;2.83;;;18.90;1.00;;;;;;5020926;28;20497;-78
2022/08/09 02:33:59;;;;;;;7.67;2.80;;;18.90;1.00;;;;;;5027005;28;20425;-78
2022/08/09 02:36:36;;;;;;;5.93;2.70;;;18.90;1.00;;;;;;5024276;28;20482;-78
2022/08/09 02:39:06;;;;;;;2.87;2.60;;;18.90;1.00;;;;;;5026293;28;20414;-78
2022/08/09 02:41:42;;;;;;;5.90;3.17;;;18.90;1.00;;;;;;5029311;28;20507;-78
2022/08/09 02:44:13;;;;;;;3.10;2.80;;;18.90;1.00;;;;;;5025057;28;20500;-78
2022/08/09 02:46:58;;;;;;;3.27;2.97;;;18.90;1.00;;;;;;5024562;28;20433;-77
2022/08/09 02:49:25;;;;;;;4.63;2.60;;;18.80;1.00;;;;;;5017535;28;20467;-77
2022/08/09 02:51:56;;;;;;;13.53;2.80;;;18.80;1.00;;;;;;5023287;28;20430;-77
2022/08/09 02:54:24;;;;;;;2.63;2.43;;;18.80;1.00;;;;;;5019816;28;20426;-77
2022/08/09 02:57:03;;;;;;;3.10;2.70;;;18.80;1.00;;;;;;5024508;28;20458;-78
2022/08/09 02:59:44;;;;;;;2.50;2.30;;;18.70;1.00;;;;;;5021151;28;20384;-78
2022/08/09 03:03:00;;;;;;;3.23;2.93;;;18.70;1.00;;;;;;5027702;28;20414;-78
2022/08/09 03:05:55;;;;;;;4.50;2.60;;;18.80;1.00;;;;;;5020923;28;20508;-78
2022/08/09 03:08:24;;;;;;;5.13;3.03;;;18.70;1.00;;;;;;5013445;28;20445;-78
2022/08/09 03:11:02;;;;;;;4.30;2.30;;;18.60;1.00;;;;;;5020660;28;20429;-78
2022/08/09 03:13:31;;;;;;;4.20;2.87;;;18.60;1.00;;;;;;5026493;28;20464;-77
2022/08/09 03:16:07;;;;;;;3.87;2.67;;;18.60;1.00;;;;;;5028924;28;20453;-78
2022/08/09 03:18:35;;;;;;;4.87;2.90;;;18.60;1.00;;;;;;5029933;28;20417;-78
2022/08/09 03:21:21;;;;;;;3.07;2.73;;;18.60;1.00;;;;;;5024057;28;20564;-78
2022/08/09 03:24:06;;;;;;;5.63;3.20;;;18.50;1.00;;;;;;5019675;28;20859;-78
2022/08/09 03:26:37;;;;;;;2.80;2.47;;;18.50;1.00;;;;;;5027411;28;21348;-77
2022/08/09 03:29:20;;;;;;;3.20;2.90;;;18.50;1.00;;;;;;5013343;28;20400;-78
2022/08/09 03:31:46;;;;;;;5.27;2.80;;;18.50;1.00;;;;;;5032791;28;20470;-78
2022/08/09 03:34:19;;;;;;;4.90;2.97;;;18.40;1.00;;;;;;5020475;28;20431;-78
2022/08/09 03:37:06;;;;;;;6.50;3.00;;;18.40;1.00;;;;;;5019837;28;20457;-78
2022/08/09 03:39:37;;;;;;;6.33;2.97;;;18.40;1.00;;;;;;5030096;28;20425;-78
2022/08/09 03:42:07;;;;;;;4.30;2.80;;;18.30;1.00;;;;;;5020857;28;20414;-78
2022/08/09 03:44:49;;;;;;;3.93;2.90;;;18.30;1.00;;;;;;5019411;28;20793;-78
2022/08/09 03:47:14;;;;;;;3.23;2.83;;;18.30;1.00;;;;;;5023242;28;20434;-78
2022/08/09 03:50:13;;;;;;;6.90;3.07;;;18.30;1.00;;;;;;5026517;28;20505;-78
2022/08/09 03:52:44;;;;;;;9.10;2.70;;;18.20;1.00;;;;;;5017796;28;20181;-78
2022/08/09 03:55:12;;;;;;;4.50;3.10;;;18.20;1.00;;;;;;5024524;28;20425;-78
2022/08/09 03:57:43;;;;;;;4.43;3.10;;;18.20;1.00;;;;;;5033861;28;20471;-78
2022/08/09 04:00:19;;;;;;;7.70;2.97;;;18.10;1.00;;;;;;5026838;28;20415;-78
2022/08/09 04:03:12;;;;;;;4.00;2.80;;;18.20;1.00;;;;;;5032143;28;20425;-75
2022/08/09 04:05:38;;;;;;;4.27;2.90;;;18.20;1.00;;;;;;5023284;28;20415;-75
2022/08/09 04:08:04;;;;;;;3.97;3.33;;;18.10;1.00;;;;;;5031282;28;20436;-75
2022/08/09 04:10:31;;;;;;;4.80;3.47;;;18.10;1.00;;;;;;5035619;28;20463;-76
2022/08/09 04:12:59;;;;;;;7.37;3.40;;;18.00;1.00;;;;;;5029096;28;20624;-75
2022/08/09 04:15:25;;;;;;;10.43;3.10;;;18.10;1.00;;;;;;5027046;28;20424;-73
2022/08/09 04:18:01;;;;;;;6.10;3.10;;;18.00;1.00;;;;;;5029861;28;20467;-87
2022/08/09 04:21:06;;;;;;;6.13;3.27;;;18.00;1.00;;;;;;5035221;28;20397;-86
2022/08/09 04:27:12;;;;;;;4.80;2.83;;;18.00;1.00;;;;;;5018248;28;20491;-86
2022/08/09 04:29:49;;;;;;;3.50;2.77;;;18.00;1.00;;;;;;5036390;28;20456;-86
2022/08/09 04:32:19;;;;;;;4.43;2.70;;;18.00;1.00;;;;;;5027840;28;20479;-77
2022/08/09 04:34:49;;;;;;;3.37;3.03;;;18.10;1.00;;;;;;5028087;28;20425;-78
2022/08/09 04:37:19;;;;;;;4.43;3.10;;;18.00;1.00;;;;;;5016200;28;20424;-78
2022/08/09 04:39:49;;;;;;;5.53;3.00;;;18.00;1.00;;;;;;5027809;28;20422;-78
2022/08/09 04:42:19;;;;;;;7.70;3.57;;;18.00;1.00;;;;;;5021402;28;20426;-78
2022/08/09 04:44:49;;;;;;;3.20;2.70;;;18.00;1.00;;;;;;5027887;28;20488;-78
2022/08/09 04:47:27;;;;;;;5.63;2.93;;;18.10;1.00;;;;;;5024496;28;20422;-79
2022/08/09 04:50:12;;;;;;;5.03;2.77;;;18.10;1.00;;;;;;5023965;28;20915;-78
2022/08/09 04:52:38;;;;;;;4.73;3.00;;;18.10;1.00;;;;;;5029533;28;20413;-78
2022/08/09 04:55:49;;;;;;;3.80;3.20;;;18.20;1.00;;;;;;5026049;28;20504;-77
2022/08/09 04:58:19;;;;;;;15.17;2.83;;;18.20;1.00;;;;;;5026670;28;20189;-79
2022/08/09 05:00:49;;;;;;;6.33;3.00;;;18.20;1.00;;;;;;5020072;28;20955;-77
2022/08/09 05:03:36;;;;;;;7.33;3.57;;;18.20;1.00;;;;;;5019057;28;20495;-85
2022/08/09 05:06:39;;;;;;;4.20;3.10;;;18.30;1.00;;;;;;5021108;28;20421;-86
2022/08/09 05:09:07;;;;;;;4.60;2.67;;;18.30;1.00;;;;;;5023822;28;20424;-85
2022/08/09 05:11:37;;;;;;;5.50;2.60;;;18.40;1.00;;;;;;5034059;28;20395;-84
2022/08/09 05:14:03;;;;;;;3.30;2.83;;;18.40;1.00;;;;;;5028127;28;20452;-84
2022/08/09 05:16:28;;;;;;;4.47;3.27;;;18.50;1.00;;;;;;5031457;28;20450;-85
2022/08/09 05:18:54;;;;;;;7.27;3.03;;;18.50;1.00;;;;;;5034250;28;20427;-84
2022/08/09 05:21:21;;;;;;;2.97;2.77;;;18.50;1.00;;;;;;5027164;28;20260;-84
2022/08/09 05:24:12;;;;;;;10.80;3.30;;;18.60;1.00;;;;;;5021883;28;20424;-85
2022/08/09 05:33:22;;;;;;;3.90;3.00;;;18.80;1.00;;;;;;5033230;28;20498;-85
2022/08/09 05:43:24;;;;;;;12.17;2.83;;;19.00;1.00;;;;;;5019487;28;20468;-85
2022/08/09 05:46:07;;;;;;;6.87;3.03;;;19.00;1.00;;;;;;5020409;28;20926;-85
2022/08/09 05:48:37;;;;;;;8.10;3.20;;;19.10;1.00;;;;;;5029394;28;20419;-85
2022/08/09 05:51:07;;;;;;;3.13;2.90;;;19.20;1.00;;;;;;5013727;28;20426;-85
2022/08/09 05:53:43;;;;;;;4.47;2.77;;;19.20;1.00;;;;;;5020760;28;20971;-85
2022/08/09 05:56:13;;;;;;;8.33;3.20;;;19.30;1.00;;;;;;5023133;28;20463;-85
2022/08/09 05:58:38;;;;;;;5.73;3.17;;;19.40;1.00;;;;;;5032465;28;20414;-85
2022/08/09 06:01:04;;;;;;;4.77;3.07;;;19.50;1.00;;;;;;5032785;28;20937;-85
2022/08/09 06:03:29;;;;;;;2.90;2.60;;;19.60;1.00;;;;;;5027300;28;20548;-85
2022/08/09 06:06:07;;;;;;;4.60;3.07;;;19.70;1.00;;;;;;5025853;28;20232;-85
2022/08/09 06:08:32;;;;;;;2.93;2.70;;;19.80;1.00;;;;;;5021506;28;20184;-85
2022/08/09 06:10:58;;;;;;;4.87;2.40;;;19.90;1.00;;;;;;5026115;28;20484;-86
2022/08/09 06:13:26;;;;;;;4.80;3.00;;;20.00;1.00;;;;;;5024201;28;20226;-85
2022/08/09 06:15:52;;;;;;;3.10;2.80;;;20.00;1.00;;;;;;5025158;28;20691;-85
2022/08/09 06:18:18;;;;;;;3.30;2.93;;;20.10;1.00;;;;;;5029123;28;20458;-82
2022/08/09 06:20:44;;;;;;;5.33;2.90;;;20.20;1.00;;;;;;5015206;28;20186;-81
2022/08/09 06:23:10;;;;;;;5.43;2.80;;;20.30;1.00;;;;;;5020811;28;20842;-80
2022/08/09 06:25:35;;;;;;;7.20;2.93;;;20.40;1.00;;;;;;5021956;28;20242;-81
2022/08/09 06:28:01;;;;;;;4.67;3.50;;;20.40;1.00;;;;;;5021589;28;20486;-81
2022/08/09 06:30:26;;;;;;;3.73;2.70;;;20.50;1.00;;;;;;5017996;28;20188;-82
2022/08/09 06:32:52;;;;;;;3.00;2.70;;;20.60;1.00;;;;;;5024238;28;20542;-81
2022/08/09 06:35:18;;;;;;;6.20;3.47;;;20.70;1.00;;;;;;5017118;28;20232;-81
2022/08/09 06:37:44;;;;;;;6.10;3.20;;;20.80;1.00;;;;;;5024918;28;20209;-81
2022/08/09 06:40:10;;;;;;;2.90;2.60;;;21.00;1.00;;;;;;5019899;28;20421;-82
2022/08/09 06:42:37;;;;;;;3.70;2.80;;;21.00;1.00;;;;;;5029313;28;20269;-82
2022/08/09 06:45:03;;;;;;;4.70;2.60;;;21.10;1.00;;;;;;5031268;28;20455;-82
2022/08/09 06:47:28;;;;;;;7.10;2.83;;;21.20;1.00;;;;;;5023813;28;20412;-76
2022/08/09 06:49:54;;;;;;;5.77;2.50;;;21.30;1.00;;;;;;5024496;28;20502;-78
2022/08/09 06:52:19;;;;;;;6.63;2.80;;;21.40;1.00;;;;;;5019054;28;20735;-70
2022/08/09 06:54:45;;;;;;;4.60;2.63;;;21.50;1.00;;;;;;5027325;28;20269;-70
2022/08/09 06:57:11;;;;;;;3.83;2.73;;;21.60;1.00;;;;;;5025017;28;20832;-70
2022/08/09 06:59:37;;;;;;;5.57;3.13;;;21.70;1.00;;;;;;5027299;28;20605;-70
2022/08/09 07:02:02;;;;;;;11.03;3.77;;;21.80;1.00;;;;;;5023920;28;20186;-70
2022/08/09 07:04:28;;;;;;;5.90;2.53;;;21.90;1.00;;;;;;5024545;28;20430;-75
2022/08/09 07:06:54;;;;;;;5.43;2.70;;;22.00;1.00;;;;;;5028024;28;20677;-75
2022/08/09 07:09:20;;;;;;;8.53;2.40;;;22.10;1.00;;;;;;5025922;28;20183;-75
2022/08/09 07:11:46;;;;;;;4.50;2.87;;;22.20;1.00;;;;;;5024233;28;20218;-76
2022/08/09 07:14:16;;;;;;;4.90;2.60;;;22.30;1.00;;;;;;5028101;28;20420;-75
2022/08/09 07:16:42;;;;;;;3.27;2.77;;;22.40;1.00;;;;;;5020241;28;20514;-75
2022/08/09 07:19:11;;;;;;;5.13;2.50;;;22.50;1.00;;;;;;5022861;28;20449;-69
2022/08/09 07:21:38;;;;;;;2.70;2.50;;;22.60;1.00;;;;;;5030581;28;20777;-69
2022/08/09 07:24:04;;;;;;;5.60;2.40;;;22.70;1.00;;;;;;5017845;28;21007;-69
2022/08/09 07:26:30;;;;;;;4.20;2.40;;;22.80;1.00;;;;;;5025449;28;20423;-71
2022/08/09 07:28:55;;;;;;;3.20;2.70;;;22.80;1.00;;;;;;5022643;28;20453;-71
2022/08/09 07:31:21;;;;;;;2.70;2.17;;;22.90;1.00;;;;;;5023845;28;20188;-71
2022/08/09 07:33:48;;;;;;;2.60;2.40;;;22.90;1.00;;;;;;5026743;28;20617;-70
2022/08/09 07:36:14;;;;;;;3.53;2.47;;;23.10;1.00;;;;;;5024548;28;20551;-71
2022/08/09 07:38:39;;;;;;;3.33;2.70;;;23.10;1.00;;;;;;5029435;28;20913;-71
2022/08/09 07:41:05;;;;;;;5.37;2.20;;;23.20;1.00;;;;;;5021713;28;20580;-70
2022/08/09 07:43:31;;;;;;;5.13;2.30;;;23.30;1.00;;;;;;5017889;28;20233;-70
2022/08/09 07:45:57;;;;;;;2.10;2.00;;;23.30;1.00;;;;;;5023127;28;20664;-70
2022/08/09 07:48:25;;;;;;;7.00;2.50;;;23.40;1.00;;;;;;5020832;28;20198;-70
2022/08/09 07:50:51;;;;;;;5.07;3.20;;;23.50;1.00;;;;;;5026953;28;20252;-70
2022/08/09 07:53:17;;;;;;;4.53;2.43;;;23.50;1.00;;;;;;5017427;28;20536;-70
2022/08/09 07:55:42;;;;;;;6.33;3.27;;;23.70;1.00;;;;;;5031889;28;20248;-70
2022/08/09 07:58:08;;;;;;;4.90;2.93;;;23.70;1.00;;;;;;5027019;28;20639;-70
2022/08/09 08:00:34;;;;;;;4.63;2.60;;;23.90;1.00;;;;;;5027472;28;20185;-70
2022/08/09 08:03:01;;;;;;;13.53;2.70;;;23.90;1.00;;;;;;5022863;28;20658;-70
2022/08/09 08:05:27;;;;;;;4.70;2.60;;;24.00;1.00;;;;;;5028237;28;20568;-70
2022/08/09 08:07:53;;;;;;;13.67;2.70;;;24.00;1.00;;;;;;5035241;28;20826;-70
2022/08/09 08:10:20;;;;;;;6.03;3.70;;;24.20;1.00;;;;;;5025405;28;20766;-71
2022/08/09 08:12:46;;;;;;;6.80;2.83;;;24.40;1.00;;;;;;5023211;28;20516;-71
2022/08/09 08:15:14;;;;;;;5.07;2.53;;;24.50;1.00;;;;;;5027246;28;20533;-71
2022/08/09 08:17:40;;;;;;;3.13;2.80;;;24.70;1.00;;;;;;5024709;28;20253;-71
2022/08/09 08:20:08;;;;;;;5.87;3.03;;;24.80;1.00;;;;;;5023249;28;20910;-71
2022/08/09 08:22:34;;;;;;;4.27;3.40;;;24.90;1.00;;;;;;5020123;28;20431;-72
2022/08/09 08:25:00;;;;;;;11.47;2.40;;;25.00;1.00;;;;;;5027731;28;20430;-71
2022/08/09 08:27:25;;;;;;;3.50;2.47;;;25.10;1.00;;;;;;5023594;28;20182;-71
2022/08/09 08:29:52;;;;;;;5.07;2.30;;;25.20;1.00;;;;;;5020322;28;20629;-71
2022/08/09 08:32:20;;;;;;;9.30;2.97;;;25.20;1.00;;;;;;5019352;28;20213;-71
2022/08/09 08:34:46;;;;;;;6.60;2.40;;;25.30;1.00;;;;;;5016262;28;20421;-72
2022/08/09 08:37:11;;;;;;;6.37;2.50;;;25.40;1.00;;;;;;5021826;28;20802;-73
2022/08/09 08:39:37;;;;;;;3.77;2.83;;;25.60;1.00;;;;;;5029266;28;20186;-73
2022/08/09 08:42:07;;;;;;;3.37;2.20;;;25.80;1.00;;;;;;5021928;28;20437;-75
2022/08/09 08:44:35;;;;;;;4.60;2.90;;;25.80;1.00;;;;;;5027208;28;20455;-73
2022/08/09 08:47:02;;;;;;;5.33;2.60;;;25.80;1.00;;;;;;5022053;28;20434;-73
2022/08/09 08:49:29;;;;;;;5.33;2.60;;;25.90;1.00;;;;;;5028152;28;20420;-72
2022/08/09 08:51:56;;;;;;;3.07;2.57;;;26.00;1.00;;;;;;5021395;28;20529;-73
2022/08/09 08:54:22;;;;;;;2.83;2.50;;;26.20;1.00;;;;;;5022371;28;20444;-73
2022/08/09 08:56:49;;;;;;;2.90;2.20;;;26.30;1.00;;;;;;5021601;28;20465;-73
2022/08/09 08:59:15;;;;;;;5.37;2.40;;;26.40;1.00;;;;;;5017601;28;20670;-73
2022/08/09 09:01:44;;;;;;;3.10;2.17;;;26.50;1.00;;;;;;5029197;28;20426;-73
2022/08/09 09:04:13;;;;;;;2.40;1.90;;;26.60;1.00;;;;;;5029136;28;20588;-73
2022/08/09 09:06:42;;;;;;;10.73;1.80;;;26.70;1.00;;;;;;5016559;28;20489;-73
2022/08/09 09:09:10;;;;;;;3.20;2.20;;;26.80;1.00;;;;;;5022148;28;20439;-73
2022/08/09 09:11:40;;;;;;;2.50;2.17;;;26.90;1.00;;;;;;5030557;28;20437;-73
2022/08/09 09:14:16;;;;;;;3.40;1.90;;;27.00;1.00;;;;;;5022764;28;20422;-73
2022/08/09 09:16:42;;;;;;;4.80;2.20;;;27.00;1.00;;;;;;5015728;28;20499;-73
2022/08/09 09:19:11;;;;;;;2.43;1.93;;;27.10;1.00;;;;;;5026933;28;20424;-72
2022/08/09 09:21:56;;;;;;;2.90;1.77;;;27.30;1.00;;;;;;5021901;28;20445;-73
2022/08/09 09:24:27;;;;;;;5.10;1.70;;;27.50;1.00;;;;;;5018041;28;20486;-73
2022/08/09 09:26:58;;;;;;;1.90;1.80;;;27.60;1.00;;;;;;5014866;28;20447;-73
2022/08/09 09:29:30;;;;;;;2.43;2.23;;;27.90;1.00;;;;;;5025762;28;20441;-73
2022/08/09 09:31:56;;;;;;;2.83;1.90;;;27.90;1.00;;;;;;5022874;28;20420;-73
2022/08/09 09:34:25;;;;;;;3.90;1.97;;;28.00;1.00;;;;;;5029593;28;20849;-72
2022/08/09 09:36:51;;;;;;;7.10;2.30;;;28.10;1.00;;;;;;5019269;28;20843;-73
2022/08/09 09:39:22;;;;;;;4.93;1.80;;;28.20;1.00;;;;;;5021991;28;20445;-73
2022/08/09 09:41:49;;;;;;;2.87;1.93;;;28.20;1.00;;;;;;5015764;28;20199;-73
2022/08/09 09:44:24;;;;;;;2.30;1.70;;;28.30;1.00;;;;;;5027442;28;20462;-73
2022/08/09 09:47:15;;;;;;;5.50;1.87;;;28.50;1.00;;;;;;5020881;28;20454;-73
2022/08/09 09:49:49;;;;;;;4.00;1.97;;;28.70;1.00;;;;;;5024719;28;20433;-72
2022/08/09 09:52:28;;;;;;;3.20;1.70;;;28.80;1.00;;;;;;5026948;28;20483;-73
2022/08/09 09:55:03;;;;;;;3.63;2.00;;;29.00;1.00;;;;;;5020550;28;20436;-73
2022/08/09 09:57:29;;;;;;;3.90;1.70;;;29.10;1.00;;;;;;5019198;28;20465;-73
2022/08/09 09:59:54;;;;;;;3.67;2.00;;;29.20;1.00;;;;;;5027097;28;20422;-74
2022/08/09 10:02:21;;;;;;;3.90;1.87;;;29.30;1.00;;;;;;5024158;28;20192;-73
2022/08/09 10:05:06;;;;;;;3.80;1.47;;;29.40;1.00;;;;;;5017054;28;20674;-73
2022/08/09 10:07:32;;;;;;;1.70;1.60;;;29.60;1.00;;;;;;5027161;28;20440;-73
2022/08/09 10:09:58;;;;;;;1.40;1.30;;;29.80;1.00;;;;;;5024597;28;20962;-85
2022/08/09 10:12:36;;;;;;;2.20;1.50;;;29.80;1.00;;;;;;5019145;28;20188;-74
2022/08/09 10:15:15;;;;;;;2.60;1.30;;;29.80;1.00;;;;;;5022444;28;20176;-74
2022/08/09 10:17:49;;;;;;;9.50;1.57;;;29.80;1.00;;;;;;5027343;28;20493;-73
2022/08/09 10:20:22;;;;;;;5.03;1.67;;;29.90;1.00;;;;;;5021198;28;20455;-74
2022/08/09 10:22:52;;;;;;;1.60;1.50;;;30.00;1.00;;;;;;5025686;28;20495;-74
2022/08/09 10:25:18;;;;;;;4.07;1.80;;;30.20;1.00;;;;;;5024512;28;20431;-74
2022/08/09 10:27:45;;;;;;;3.07;1.40;;;30.20;1.00;;;;;;5023844;28;20488;-74
2022/08/09 10:30:11;;;;;;;4.33;1.53;;;30.30;1.00;;;;;;5019379;28;20260;-74
2022/08/09 10:32:39;;;;;;;7.60;1.90;;;30.40;1.00;;;;;;5032324;28;20415;-74
2022/08/09 10:35:06;;;;;;;2.20;1.80;;;30.50;1.00;;;;;;5031153;28;20434;-73
2022/08/09 10:37:32;;;;;;;1.80;1.70;;;30.60;1.00;;;;;;5027001;28;20468;-74
2022/08/09 10:39:59;;;;;;;10.33;1.50;;;30.60;1.00;;;;;;5024032;28;20496;-74
2022/08/09 10:42:25;;;;;;;1.63;1.53;;;30.60;1.00;;;;;;5031744;28;20176;-74
2022/08/09 10:45:11;;;;;;;2.30;1.40;;;30.60;1.00;;;;;;5025486;28;20446;-74
2022/08/09 10:47:44;;;;;;;3.27;1.77;;;30.60;1.00;;;;;;5021716;28;20208;-74
2022/08/09 10:51:05;;;;;;;3.80;1.73;;;30.70;1.00;;;;;;5029531;28;20443;-73
2022/08/09 10:53:27;;;;;;;2.60;1.70;;;30.70;1.00;;;;;;5029824;28;20418;-73
2022/08/09 10:56:20;;;;;;;3.43;1.53;;;30.70;1.00;;;;;;5023781;28;20523;-73
2022/08/09 10:58:46;;;;;;;9.63;1.50;;;30.90;1.00;;;;;;5017737;28;20415;-73
2022/08/09 11:01:44;;;;;;;5.47;1.40;;;31.00;1.00;;;;;;5032160;28;20442;-73
2022/08/09 11:04:22;;;;;;;1.80;1.70;;;31.10;1.00;;;;;;5053821;28;20202;-73
2022/08/09 11:06:57;;;;;;;2.80;1.53;;;31.00;1.00;;;;;;5054185;28;20424;-74
2022/08/09 11:09:42;;;;;;;5.37;1.90;;;31.10;1.00;;;;;;5053057;28;20971;-74
2022/08/09 11:12:16;;;;;;;5.90;1.83;;;31.20;1.00;;;;;;5039474;28;20494;-74
2022/08/09 11:14:50;;;;;;;2.13;1.70;;;31.30;1.00;;;;;;5051925;28;20844;-74
2022/08/09 11:17:19;;;;;;;5.97;1.70;;;31.30;1.00;;;;;;5054400;28;20454;-74
2022/08/09 11:20:09;;;;;;;1.83;1.50;;;31.30;1.00;;;;;;5041509;28;20433;-74
2022/08/09 11:22:43;;;;;;;4.40;1.50;;;31.30;1.00;;;;;;5046292;28;20504;-74
2022/08/09 11:25:44;;;;;;;10.53;1.53;;;31.40;1.00;;;;;;5050444;28;20440;-74
2022/08/09 11:28:32;;;;;;;5.30;1.57;;;31.50;1.00;;;;;;5015227;28;20573;-74
2022/08/09 11:30:59;;;;;;;4.20;1.30;;;31.70;1.00;;;;;;5017523;28;20438;-74
2022/08/09 11:33:41;;;;;;;1.57;1.47;;;31.80;1.00;;;;;;5028139;28;20431;-74
2022/08/09 11:36:08;;;;;;;4.03;1.73;;;31.90;1.00;;;;;;5002441;28;20570;-74
2022/08/09 11:38:34;;;;;;;1.33;1.23;;;31.80;1.00;;;;;;5013518;28;20454;-74
2022/08/09 11:41:10;;;;;;;2.67;1.50;;;31.90;1.00;;;;;;4959461;28;20434;-74
2022/08/09 11:43:47;;;;;;;4.53;1.33;;;31.90;1.00;;;;;;4956268;28;20430;-74
2022/08/09 11:46:13;;;;;;;1.20;1.10;;;32.20;1.00;;;;;;4956648;28;20449;-74
2022/08/09 11:49:00;;;;;;;1.33;1.23;;;32.30;1.00;;;;;;4956165;28;20872;-73
2022/08/09 11:51:26;;;;;;;3.37;1.27;;;32.50;1.00;;;;;;4957205;28;21813;-73
2022/08/09 11:54:11;;;;;;;6.53;1.30;;;32.40;1.00;;;;;;4956316;28;20976;-71
2022/08/09 11:56:37;;;;;;;1.13;1.03;;;32.40;1.00;;;;;;4951521;28;20474;-71
2022/08/09 11:59:04;;;;;;;4.20;1.40;;;32.30;1.00;;;;;;4955552;29;20431;-72
2022/08/09 12:01:36;;;;;;;1.50;1.40;;;32.30;1.00;;;;;;4973292;28;20596;-73
2022/08/09 12:04:05;;;;;;;2.70;1.43;;;32.40;1.00;;;;;;5022718;28;20863;-76
2022/08/09 12:06:32;;;;;;;1.20;1.10;;;32.40;1.00;;;;;;5026164;28;20819;-72
2022/08/09 12:09:00;;;;;;;2.90;1.10;;;32.60;1.00;;;;;;5023155;28;20446;-72
2022/08/09 12:11:27;;;;;;;0.87;0.87;;;32.60;1.00;;;;;;5025127;28;20498;-73
2022/08/09 12:14:04;;;;;;;6.47;1.57;;;32.60;1.00;;;;;;5024478;28;20854;-73
2022/08/09 12:16:35;;;;;;;1.30;1.20;;;32.60;1.00;;;;;;5019998;28;20451;-73
2022/08/09 12:19:03;;;;;;;7.90;1.10;;;32.60;1.00;;;;;;5028920;28;20471;-74
2022/08/09 12:21:37;;;;;;;1.40;1.30;;;32.70;1.00;;;;;;5035910;28;20446;-73
2022/08/09 12:24:07;;;;;;;1.40;1.30;;;32.80;1.00;;;;;;5020899;28;20427;-73
2022/08/09 12:26:55;;;;;;;9.73;1.53;;;32.80;1.00;;;;;;5019961;28;20427;-72
2022/08/09 12:29:24;;;;;;;3.00;1.10;;;32.80;1.00;;;;;;5028317;28;20473;-72
2022/08/09 12:32:00;;;;;;;3.00;1.30;;;32.80;1.00;;;;;;5025532;28;20415;-73
2022/08/09 12:34:35;;;;;;;1.00;1.00;;;32.70;1.00;;;;;;5015725;28;20404;-73
2022/08/09 12:37:02;;;;;;;2.60;1.30;;;32.70;1.00;;;;;;5021024;28;20459;-73
2022/08/09 12:39:28;;;;;;;1.40;1.30;;;32.80;1.00;;;;;;5020977;28;20468;-72
2022/08/09 12:41:54;;;;;;;2.70;1.20;;;32.90;1.00;;;;;;5021304;28;20421;-73
2022/08/09 12:44:19;;;;;;;2.00;1.20;;;33.00;1.00;;;;;;5015513;28;20455;-73
2022/08/09 12:46:49;;;;;;;5.23;1.30;;;33.00;1.00;;;;;;5026466;28;20648;-73
2022/08/09 12:49:16;;;;;;;1.33;1.23;;;33.00;1.00;;;;;;5026807;28;20674;-73
2022/08/09 12:51:53;;;;;;;4.13;1.90;;;33.00;1.00;;;;;;5033554;28;20812;-72
2022/08/09 12:54:18;;;;;;;1.10;1.00;;;33.10;1.00;;;;;;5023858;28;20777;-72
2022/08/09 12:56:46;;;;;;;2.70;1.20;;;33.20;1.00;;;;;;5024191;28;20471;-72
2022/08/09 12:59:21;;;;;;;2.47;1.27;;;33.40;1.00;;;;;;5018304;28;20268;-72
2022/08/09 13:02:06;;;;;;;1.20;1.20;;;33.40;1.00;;;;;;5035183;28;20407;-73
2022/08/09 13:04:32;;;;;;;2.20;1.10;;;33.50;1.00;;;;;;5034211;28;20421;-72
2022/08/09 13:07:09;;;;;;;1.37;1.10;;;33.50;1.00;;;;;;5035432;28;20757;-73
2022/08/09 13:09:35;;;;;;;1.60;1.33;;;33.50;1.00;;;;;;5025406;28;20431;-73
2022/08/09 13:12:03;;;;;;;3.50;0.90;;;33.50;1.00;;;;;;5016476;28;20419;-72
2022/08/09 13:14:31;;;;;;;2.53;1.10;;;33.50;1.00;;;;;;5016438;28;20181;-73
2022/08/09 13:16:59;;;;;;;1.20;1.10;;;33.40;1.00;;;;;;5021530;28;20455;-72
2022/08/09 13:19:37;;;;;;;1.57;1.10;;;33.50;1.00;;;;;;5026424;28;20771;-73
2022/08/09 13:22:12;;;;;;;1.23;1.13;;;33.40;1.00;;;;;;5034919;28;20494;-72
2022/08/09 13:24:39;;;;;;;3.63;1.10;;;33.40;1.00;;;;;;5025188;28;20732;-73
2022/08/09 13:27:22;;;;;;;3.63;1.20;;;33.50;1.00;;;;;;5016252;28;20423;-73
2022/08/09 13:30:06;;;;;;;1.20;1.20;;;33.50;1.00;;;;;;5014785;28;20423;-72
2022/08/09 13:32:55;;;;;;;1.27;1.17;;;33.60;1.00;;;;;;5030480;28;20480;-73
2022/08/09 13:35:24;;;;;;;4.07;1.40;;;33.60;1.00;;;;;;5017165;28;20420;-73
2022/08/09 13:37:50;;;;;;;6.90;1.03;;;33.70;1.00;;;;;;5015153;28;20447;-74
2022/08/09 13:40:17;;;;;;;4.20;1.43;;;33.70;1.00;;;;;;5023097;28;20428;-73
2022/08/09 13:42:44;;;;;;;1.20;1.10;;;33.80;1.00;;;;;;5016384;28;20434;-72
2022/08/09 13:45:11;;;;;;;1.60;1.50;;;33.80;1.00;;;;;;5021302;28;20440;-74
2022/08/09 13:47:38;;;;;;;1.70;1.07;;;33.70;1.00;;;;;;5029809;28;20419;-74